createdAt,value
2022-08-22T00:01:04.416Z,100.00
2022-08-22T00:03:07.041Z,100.00
2022-08-22T00:04:07.996Z,100.00
2022-08-22T00:07:18.332Z,100.00
2022-08-22T00:10:27.875Z,100.00
2022-08-22T00:14:01.651Z,100.00
2022-08-22T00:17:09.499Z,100.00
2022-08-22T00:20:13.884Z,100.00
2022-08-22T00:23:18.538Z,100.00
2022-08-22T00:26:48.984Z,100.00
2022-08-22T00:30:00.309Z,100.00
2022-08-22T00:33:05.227Z,100.00
2022-08-22T00:36:23.805Z,100.00
2022-08-22T00:39:34.056Z,100.00
2022-08-22T00:43:04.192Z,100.00
2022-08-22T00:46:20.056Z,100.00
2022-08-22T00:49:33.625Z,100.00
2022-08-22T00:53:00.209Z,100.00
2022-08-22T00:56:13.817Z,100.00
2022-08-22T00:59:24.005Z,100.00
2022-08-22T01:03:02.144Z,100.00
2022-08-22T01:06:12.456Z,100.00
2022-08-22T01:09:23.710Z,100.00
2022-08-22T01:12:46.889Z,100.00
2022-08-22T01:15:53.269Z,100.00
2022-08-22T01:19:07.154Z,100.00
2022-08-22T01:22:30.153Z,100.00
2022-08-22T01:25:56.160Z,100.00
2022-08-22T01:29:19.459Z,100.00
2022-08-22T01:32:53.402Z,100.00
2022-08-22T01:36:16.292Z,100.00
2022-08-22T01:39:55.711Z,100.00
2022-08-22T01:43:51.339Z,100.00
2022-08-22T01:46:58.402Z,100.00
2022-08-22T01:50:38.379Z,100.00
2022-08-22T01:53:56.902Z,100.00
2022-08-22T01:57:02.428Z,100.00
2022-08-22T02:00:17.694Z,100.00
2022-08-22T02:03:53.592Z,100.00
2022-08-22T02:07:03.850Z,100.00
2022-08-22T02:10:26.764Z,100.00
2022-08-22T02:13:46.791Z,100.00
2022-08-22T02:16:56.452Z,100.00
2022-08-22T02:20:17.971Z,100.00
2022-08-22T02:23:46.821Z,100.00
2022-08-22T02:27:29.875Z,100.00
2022-08-22T02:30:42.333Z,100.00
2022-08-22T02:33:46.560Z,100.00
2022-08-22T02:37:08.678Z,100.00
2022-08-22T02:40:34.060Z,100.00
2022-08-22T02:43:57.506Z,100.00
2022-08-22T02:47:09.831Z,100.00
2022-08-22T02:50:18.533Z,100.00
2022-08-22T02:53:49.780Z,100.00
2022-08-22T02:57:05.747Z,100.00
2022-08-22T03:00:31.742Z,100.00
2022-08-22T03:03:41.448Z,100.00
2022-08-22T03:07:00.071Z,100.00
2022-08-22T03:10:18.907Z,100.00
2022-08-22T03:14:03.657Z,100.00
2022-08-22T03:17:26.525Z,100.00
2022-08-22T03:21:12.429Z,100.00
2022-08-22T03:24:43.135Z,100.00
2022-08-22T03:28:00.124Z,100.00
2022-08-22T03:31:17.762Z,100.00
2022-08-22T03:34:26.980Z,100.00
2022-08-22T03:37:31.400Z,100.00
2022-08-22T03:40:49.149Z,100.00
2022-08-22T03:44:30.449Z,100.00
2022-08-22T03:47:51.469Z,100.00
2022-08-22T03:51:13.470Z,100.00
2022-08-22T03:54:41.809Z,100.00
2022-08-22T03:58:27.979Z,100.00
2022-08-22T04:01:44.933Z,100.00
2022-08-22T04:05:19.214Z,100.00
2022-08-22T04:08:31.743Z,100.00
2022-08-22T04:11:51.567Z,100.00
2022-08-22T04:15:21.090Z,100.00
2022-08-22T04:19:08.034Z,100.00
2022-08-22T04:22:12.555Z,100.00
2022-08-22T04:25:19.916Z,100.00
2022-08-22T04:28:34.317Z,100.00
2022-08-22T04:31:48.263Z,100.00
2022-08-22T04:34:59.634Z,100.00
2022-08-22T04:38:04.261Z,100.00
2022-08-22T04:41:11.047Z,100.00
2022-08-22T04:44:30.836Z,100.00
2022-08-22T04:48:08.222Z,100.00
2022-08-22T04:51:22.157Z,100.00
2022-08-22T04:54:51.304Z,100.00
2022-08-22T04:58:16.962Z,100.00
2022-08-22T05:01:39.316Z,100.00
2022-08-22T05:04:49.746Z,100.00
2022-08-22T05:08:03.194Z,100.00
2022-08-22T05:11:07.536Z,100.00
2022-08-22T05:14:15.324Z,100.00
2022-08-22T05:17:22.300Z,100.00
2022-08-22T05:20:27.452Z,100.00
2022-08-22T05:23:38.572Z,100.00
2022-08-22T05:26:44.265Z,100.00
2022-08-22T05:29:50.292Z,100.00
2022-08-22T05:32:57.112Z,100.00
2022-08-22T05:36:07.276Z,100.00
2022-08-22T05:39:11.614Z,100.00
2022-08-22T05:42:22.101Z,100.00
2022-08-22T05:45:26.372Z,100.00
2022-08-22T05:48:57.265Z,100.00
2022-08-22T05:52:17.005Z,100.00
2022-08-22T05:55:30.353Z,100.00
2022-08-22T05:58:42.953Z,100.00
2022-08-22T06:02:05.539Z,100.00
2022-08-22T06:05:11.907Z,100.00
2022-08-22T06:08:34.442Z,100.00
2022-08-22T06:12:00.467Z,100.00
2022-08-22T06:15:23.212Z,100.00
2022-08-22T06:18:26.886Z,100.00
2022-08-22T06:21:39.233Z,100.00
2022-08-22T06:24:41.390Z,100.00
2022-08-22T06:27:46.218Z,100.00
2022-08-22T06:30:51.030Z,100.00
2022-08-22T06:34:04.706Z,100.00
2022-08-22T06:37:12.275Z,100.00
2022-08-22T06:40:16.698Z,100.00
2022-08-22T06:43:18.790Z,100.00
2022-08-22T06:46:24.638Z,100.00
2022-08-22T06:49:29.406Z,100.00
2022-08-22T06:52:34.581Z,100.00
2022-08-22T06:55:40.309Z,100.00
2022-08-22T06:58:47.736Z,100.00
2022-08-22T07:02:07.016Z,100.00
2022-08-22T07:05:16.591Z,100.00
2022-08-22T07:08:21.542Z,100.00
2022-08-22T07:11:28.029Z,100.00
2022-08-22T07:14:38.590Z,100.00
2022-08-22T07:17:53.560Z,100.00
2022-08-22T07:21:08.114Z,100.00
2022-08-22T07:24:16.998Z,100.00
2022-08-22T07:27:26.109Z,100.00
2022-08-22T07:30:40.857Z,100.00
2022-08-22T07:33:55.107Z,100.00
2022-08-22T07:37:03.515Z,100.00
2022-08-22T07:40:23.705Z,100.00
2022-08-22T07:43:34.339Z,100.00
2022-08-22T07:46:48.082Z,100.00
2022-08-22T07:49:56.635Z,100.00
2022-08-22T07:53:08.686Z,100.00
2022-08-22T07:56:19.212Z,100.00
2022-08-22T07:59:22.254Z,100.00
2022-08-22T08:02:25.127Z,100.00
2022-08-22T08:05:32.358Z,100.00
2022-08-22T08:08:36.672Z,100.00
2022-08-22T08:11:40.423Z,100.00
2022-08-22T08:14:45.406Z,100.00
2022-08-22T08:17:52.360Z,100.00
2022-08-22T08:21:09.105Z,100.00
2022-08-22T08:24:18.059Z,100.00
2022-08-22T08:27:44.975Z,100.00
2022-08-22T08:31:07.419Z,100.00
2022-08-22T08:34:15.346Z,100.00
2022-08-22T08:37:22.363Z,99.94
2022-08-22T08:40:35.643Z,100.00
2022-08-22T08:43:49.312Z,100.00
2022-08-22T08:47:00.317Z,95.04
2022-08-22T08:50:17.486Z,95.23
2022-08-22T08:57:18.733Z,91.36
2022-08-22T09:00:31.826Z,86.49
2022-08-22T09:04:14.993Z,89.99
2022-08-22T09:07:38.867Z,85.20
2022-08-22T09:10:49.140Z,81.19
2022-08-22T09:14:02.506Z,80.25
2022-08-22T09:17:21.110Z,78.02
2022-08-22T09:20:46.374Z,77.16
2022-08-22T09:24:10.842Z,79.69
2022-08-22T09:27:21.489Z,76.17
2022-08-22T09:30:48.709Z,76.92
2022-08-22T09:33:59.904Z,71.18
2022-08-22T09:37:25.391Z,73.22
2022-08-22T09:40:33.699Z,73.79
2022-08-22T09:43:48.397Z,69.09
2022-08-22T09:46:53.277Z,72.26
2022-08-22T09:50:30.771Z,70.65
2022-08-22T09:54:00.545Z,71.40
2022-08-22T09:57:14.083Z,73.46
2022-08-22T10:00:23.559Z,72.34
2022-08-22T10:03:27.792Z,66.51
2022-08-22T10:06:41.070Z,69.93
2022-08-22T10:10:06.910Z,67.27
2022-08-22T10:13:39.293Z,61.83
2022-08-22T10:17:30.522Z,62.62
2022-08-22T10:20:47.590Z,58.03
2022-08-22T10:23:50.042Z,56.82
2022-08-22T10:26:55.653Z,59.26
2022-08-22T10:30:08.050Z,59.19
2022-08-22T10:33:16.671Z,60.93
2022-08-22T10:36:35.158Z,57.34
2022-08-22T10:39:56.624Z,57.27
2022-08-22T10:43:29.014Z,56.09
2022-08-22T10:46:42.171Z,57.70
2022-08-22T10:50:21.183Z,55.71
2022-08-22T10:53:34.967Z,59.68
2022-08-22T10:56:54.380Z,55.46
2022-08-22T11:00:10.048Z,57.87
2022-08-22T11:03:23.364Z,53.85
2022-08-22T11:06:46.681Z,53.89
2022-08-22T11:10:01.783Z,52.80
2022-08-22T11:13:27.059Z,51.34
2022-08-22T11:17:30.283Z,53.71
2022-08-22T11:20:57.305Z,52.96
2022-08-22T11:24:35.625Z,53.11
2022-08-22T11:28:12.905Z,50.23
2022-08-22T11:31:51.284Z,47.77
2022-08-22T11:34:57.372Z,48.90
2022-08-22T11:38:03.840Z,48.31
2022-08-22T11:41:29.613Z,47.19
2022-08-22T11:44:43.028Z,45.39
2022-08-22T11:48:08.404Z,44.91
2022-08-22T11:51:24.971Z,47.12
2022-08-22T11:54:34.907Z,44.97
2022-08-22T11:57:44.348Z,45.16
2022-08-22T12:01:01.840Z,45.26
2022-08-22T12:04:18.545Z,44.16
2022-08-22T12:07:31.444Z,44.53
2022-08-22T12:10:42.360Z,44.63
2022-08-22T12:14:02.399Z,46.30
2022-08-22T12:17:55.013Z,43.81
2022-08-22T12:21:03.843Z,42.43
2022-08-22T12:24:29.943Z,43.22
2022-08-22T12:27:48.311Z,41.55
2022-08-22T12:31:39.581Z,45.68
2022-08-22T12:35:13.757Z,42.42
2022-08-22T12:38:28.439Z,43.55
2022-08-22T12:41:46.864Z,42.88
2022-08-22T12:45:02.269Z,40.96
2022-08-22T12:48:37.496Z,41.71
2022-08-22T12:52:04.831Z,42.02
2022-08-22T12:55:25.315Z,41.94
2022-08-22T12:58:38.966Z,39.80
2022-08-22T13:01:44.533Z,40.12
2022-08-22T13:04:54.171Z,42.91
2022-08-22T13:08:04.411Z,42.01
2022-08-22T13:11:22.313Z,40.98
2022-08-22T13:14:27.824Z,43.02
2022-08-22T13:17:30.178Z,41.37
2022-08-22T13:20:37.414Z,40.72
2022-08-22T13:23:44.717Z,39.31
2022-08-22T13:26:50.209Z,36.80
2022-08-22T13:30:01.841Z,37.73
2022-08-22T13:33:13.282Z,40.64
2022-08-22T13:36:21.159Z,40.19
2022-08-22T13:39:32.938Z,37.79
2022-08-22T13:42:45.537Z,40.45
2022-08-22T13:45:56.294Z,36.71
2022-08-22T13:49:04.672Z,42.26
2022-08-22T13:52:17.748Z,38.11
2022-08-22T13:55:49.182Z,36.93
2022-08-22T13:58:56.983Z,38.84
2022-08-22T14:02:34.141Z,40.00
2022-08-22T14:05:46.418Z,39.22
2022-08-22T14:08:51.781Z,37.36
2022-08-22T14:12:12.266Z,39.84
2022-08-22T14:15:23.350Z,41.35
2022-08-22T14:18:35.866Z,38.94
2022-08-22T14:21:48.314Z,36.88
2022-08-22T14:24:55.653Z,35.02
2022-08-22T14:28:06.282Z,38.20
2022-08-22T14:31:14.178Z,37.34
2022-08-22T14:34:16.415Z,34.69
2022-08-22T14:37:28.768Z,38.50
2022-08-22T14:40:36.551Z,35.41
2022-08-22T14:44:09.720Z,36.41
2022-08-22T14:47:51.051Z,33.86
2022-08-22T14:50:49.150Z,33.35
2022-08-22T14:54:09.464Z,34.64
2022-08-22T14:57:19.801Z,34.79
2022-08-22T15:00:31.903Z,38.54
2022-08-22T15:03:37.346Z,35.52
2022-08-22T15:06:53.722Z,36.33
2022-08-22T15:10:01.093Z,38.09
2022-08-22T15:13:08.068Z,37.56
2022-08-22T15:16:15.721Z,40.99
2022-08-22T15:19:27.374Z,39.01
2022-08-22T15:22:29.245Z,40.84
2022-08-22T15:25:40.974Z,37.63
2022-08-22T15:28:52.322Z,42.20
2022-08-22T15:32:02.273Z,43.33
2022-08-22T15:35:27.509Z,41.93
2022-08-22T15:38:36.451Z,45.85
2022-08-22T15:41:43.514Z,38.09
2022-08-22T15:44:46.892Z,42.22
2022-08-22T15:47:53.119Z,37.46
2022-08-22T15:51:04.856Z,41.72
2022-08-22T15:54:24.770Z,41.49
2022-08-22T15:57:41.366Z,38.54
2022-08-22T16:01:04.746Z,43.62
2022-08-22T16:04:49.092Z,43.14
2022-08-22T16:07:58.910Z,42.43
2022-08-22T16:11:03.152Z,44.58
2022-08-22T16:14:21.421Z,45.48
2022-08-22T16:17:29.074Z,43.62
2022-08-22T16:20:36.661Z,46.79
2022-08-22T16:23:50.061Z,46.78
2022-08-22T16:26:52.020Z,43.99
2022-08-22T16:30:07.364Z,46.99
2022-08-22T16:33:18.220Z,41.89
2022-08-22T16:36:41.810Z,40.07
2022-08-22T16:39:46.032Z,39.35
2022-08-22T16:43:09.837Z,40.11
2022-08-22T16:46:37.279Z,38.69
2022-08-22T16:49:50.722Z,37.88
2022-08-22T16:52:57.288Z,39.99
2022-08-22T16:56:24.741Z,38.00
2022-08-22T16:59:39.531Z,36.02
2022-08-22T17:03:18.057Z,38.21
2022-08-22T17:06:41.134Z,39.29
2022-08-22T17:09:56.587Z,38.54
2022-08-22T17:13:10.502Z,40.64
2022-08-22T17:16:27.910Z,37.76
2022-08-22T17:19:56.863Z,36.30
2022-08-22T17:23:13.409Z,36.82
2022-08-22T17:26:48.788Z,36.58
2022-08-22T17:30:09.116Z,41.18
2022-08-22T17:33:20.936Z,37.61
2022-08-22T17:37:07.169Z,40.13
2022-08-22T17:40:15.453Z,44.05
2022-08-22T17:43:49.812Z,42.27
2022-08-22T17:47:07.111Z,46.08
2022-08-22T17:50:40.824Z,40.63
2022-08-22T17:53:55.056Z,44.22
2022-08-22T17:57:11.108Z,41.54
2022-08-22T18:00:18.744Z,43.86
2022-08-22T18:03:31.644Z,43.24
2022-08-22T18:06:38.732Z,45.33
2022-08-22T18:09:56.148Z,44.15
2022-08-22T18:13:35.420Z,44.79
2022-08-22T18:16:47.010Z,44.63
2022-08-22T18:19:55.915Z,45.06
2022-08-22T18:23:08.490Z,45.46
2022-08-22T18:26:33.658Z,45.67
2022-08-22T18:29:59.058Z,46.39
2022-08-22T18:33:26.700Z,47.37
2022-08-22T18:36:38.245Z,49.11
2022-08-22T18:39:59.737Z,51.01
2022-08-22T18:43:13.435Z,49.41
2022-08-22T18:46:40.961Z,46.78
2022-08-22T18:49:48.463Z,44.16
2022-08-22T18:52:50.786Z,43.40
2022-08-22T18:56:06.582Z,43.29
2022-08-22T18:59:28.914Z,41.97
2022-08-22T19:02:33.622Z,43.37
2022-08-22T19:06:16.969Z,43.05
2022-08-22T19:09:50.468Z,43.05
2022-08-22T19:13:17.134Z,42.99
2022-08-22T19:16:52.922Z,44.16
2022-08-22T19:20:31.721Z,42.28
2022-08-22T19:23:37.026Z,43.74
2022-08-22T19:26:44.671Z,42.69
2022-08-22T19:29:46.056Z,41.64
2022-08-22T19:32:47.681Z,42.59
2022-08-22T19:35:51.928Z,42.14
2022-08-22T19:39:04.676Z,41.68
2022-08-22T19:42:30.954Z,42.32
2022-08-22T19:45:39.648Z,41.63
2022-08-22T19:48:48.399Z,41.12
2022-08-22T19:52:03.262Z,42.09
2022-08-22T19:55:23.542Z,41.96
2022-08-22T19:58:31.839Z,41.01
2022-08-22T20:01:40.649Z,42.08
2022-08-22T20:05:03.971Z,42.14
2022-08-22T20:08:24.935Z,41.58
2022-08-22T20:12:15.232Z,40.93
2022-08-22T20:15:24.396Z,41.31
2022-08-22T20:19:02.003Z,41.66
2022-08-22T20:22:11.600Z,41.29
2022-08-22T20:25:43.563Z,41.24
2022-08-22T20:28:49.733Z,40.67
2022-08-22T20:31:58.594Z,41.41
2022-08-22T20:35:03.021Z,41.06
2022-08-22T20:38:07.457Z,41.50
2022-08-22T20:41:21.345Z,42.55
2022-08-22T20:44:30.760Z,41.10
2022-08-22T20:47:41.094Z,42.63
2022-08-22T20:50:43.868Z,41.50
2022-08-22T20:53:58.766Z,42.65
2022-08-22T20:57:16.127Z,42.17
2022-08-22T21:00:42.163Z,42.46
2022-08-22T21:03:47.753Z,42.02
2022-08-22T21:06:58.969Z,42.62
2022-08-22T21:10:45.195Z,42.03
2022-08-22T21:13:47.590Z,43.07
2022-08-22T21:16:50.053Z,42.72
2022-08-22T21:19:51.650Z,42.79
2022-08-22T21:22:53.113Z,43.50
2022-08-22T21:26:05.163Z,44.04
2022-08-22T21:29:08.648Z,43.75
2022-08-22T21:32:40.485Z,43.56
2022-08-22T21:35:41.919Z,43.07
2022-08-22T21:38:59.070Z,43.82
2022-08-22T21:42:00.452Z,45.03
2022-08-22T21:45:08.653Z,43.62
2022-08-22T21:48:35.067Z,43.71
2022-08-22T21:51:36.491Z,43.50
2022-08-22T21:54:40.094Z,43.60
2022-08-22T21:57:42.121Z,44.05
2022-08-22T22:01:22.139Z,43.04
2022-08-22T22:04:26.446Z,44.51
2022-08-22T22:07:28.822Z,44.17
2022-08-22T22:10:31.074Z,44.29
2022-08-22T22:13:32.526Z,45.13
2022-08-22T22:16:34.170Z,45.53
2022-08-22T22:19:36.460Z,45.90
2022-08-22T22:22:43.145Z,45.07
2022-08-22T22:25:48.802Z,46.33
2022-08-22T22:28:51.116Z,47.91
2022-08-22T22:31:52.574Z,46.50
2022-08-22T22:34:54.032Z,46.19
2022-08-22T22:37:55.922Z,46.26
2022-08-22T22:40:57.440Z,45.95
2022-08-22T22:44:00.983Z,45.26
2022-08-22T22:47:03.811Z,45.64
2022-08-22T22:50:07.460Z,47.48
2022-08-22T22:53:09.926Z,47.44
2022-08-22T22:56:17.952Z,46.09
2022-08-22T22:59:24.761Z,47.40
2022-08-22T23:02:27.120Z,47.63
2022-08-22T23:05:32.238Z,47.78
2022-08-22T23:08:33.658Z,48.31
2022-08-22T23:11:35.710Z,49.74
2022-08-22T23:14:37.174Z,50.05
2022-08-22T23:17:38.760Z,52.19
2022-08-22T23:20:40.177Z,53.48
2022-08-22T23:23:42.133Z,56.37
2022-08-22T23:26:44.462Z,55.47
2022-08-22T23:29:45.995Z,54.11
2022-08-22T23:32:47.759Z,54.33
2022-08-22T23:35:49.221Z,54.31
2022-08-22T23:38:51.304Z,55.29
2022-08-22T23:41:54.131Z,55.68
2022-08-22T23:44:55.633Z,56.60
